Time;durP1;ratioP1;P1;durP2;ratioP2;P2;SDS_P1;SDS_P2;PMS_P1;PMS_P2;Temp;Humidity;BMP_temperature;BMP_pressure;BME280_temperature;BME280_humidity;BME280_pressure;Samples;Min_cycle;Max_cycle;Signal;HPM_P1;HPM_P2
2022/12/09 00:00:29;;;;;;;45.75;25.45;;;;;;;2.43;74.00;99545.88;2023747;88;33646;-64
2022/12/09 00:03:33;;;;;;;53.85;26.48;;;;;;;2.41;73.96;99541.95;2023388;87;27715;-64
2022/12/09 00:06:34;;;;;;;45.80;26.30;;;;;;;2.39;73.88;99541.16;2023868;88;27631;-64
2022/12/09 00:09:36;;;;;;;49.23;27.52;;;;;;;2.38;73.95;99540.73;2023833;87;29341;-64
2022/12/09 00:12:37;;;;;;;48.80;26.93;;;;;;;2.38;73.99;99539.41;2023719;87;31025;-66
2022/12/09 00:15:41;;;;;;;44.73;25.50;;;;;;;2.37;74.04;99536.80;2023419;87;33014;-65
2022/12/09 00:18:44;;;;;;;48.70;27.17;;;;;;;2.38;73.98;99538.09;2005344;88;29310;-64
2022/12/09 00:21:45;;;;;;;55.25;27.98;;;;;;;2.34;74.00;99538.20;2023441;88;27791;-64
2022/12/09 00:24:47;;;;;;;59.15;28.50;;;;;;;2.32;74.00;99534.77;2023919;87;29293;-65
2022/12/09 00:27:48;;;;;;;52.80;27.40;;;;;;;2.32;74.03;99538.25;2023809;88;31112;-65
2022/12/09 00:30:50;;;;;;;50.38;27.40;;;;;;;2.31;74.13;99532.55;2023892;88;33026;-65
2022/12/09 00:33:54;;;;;;;52.70;27.93;;;;;;;2.30;74.14;99537.90;2023489;88;30068;-65
2022/12/09 00:36:55;;;;;;;57.10;28.02;;;;;;;2.28;74.09;99539.23;2024199;87;27614;-65
2022/12/09 00:39:57;;;;;;;49.75;27.40;;;;;;;2.27;74.17;99541.03;2025601;87;29517;-65
2022/12/09 00:42:59;;;;;;;50.58;27.77;;;;;;;2.27;74.22;99538.83;2026440;87;31127;-66
2022/12/09 00:46:00;;;;;;;46.50;27.42;;;;;;;2.26;74.19;99538.41;2064068;86;32986;-65
2022/12/09 00:49:03;;;;;;;49.08;27.20;;;;;;;2.24;74.15;99542.88;2063874;86;29333;-65
2022/12/09 00:52:05;;;;;;;43.25;26.20;;;;;;;2.19;74.06;99545.64;2064011;86;27787;-65
2022/12/09 00:55:07;;;;;;;49.93;27.80;;;;;;;2.16;74.11;99545.73;2064049;86;29371;-65
2022/12/09 00:58:08;;;;;;;48.13;27.98;;;;;;;2.14;74.18;99550.22;2063823;86;31405;-65
2022/12/09 01:01:09;;;;;;;49.08;26.23;;;;;;;2.11;74.14;99553.78;2063910;86;33124;-64
2022/12/09 01:04:11;;;;;;;48.80;27.70;;;;;;;2.07;74.09;99549.95;2063841;86;29325;-66
2022/12/09 01:07:13;;;;;;;43.25;26.48;;;;;;;2.05;74.17;99552.65;2064043;86;27764;-66
2022/12/09 01:10:14;;;;;;;43.85;25.02;;;;;;;2.03;74.20;99555.78;2063958;86;28790;-67
2022/12/09 01:13:16;;;;;;;45.45;26.40;;;;;;;2.01;74.20;99552.31;2027096;86;31798;-65
2022/12/09 01:16:26;;;;;;;43.08;25.72;;;;;;;1.99;74.29;99544.88;2024037;88;32970;-65
2022/12/09 01:19:28;;;;;;;47.98;25.68;;;;;;;1.97;74.27;99545.36;2024172;87;30015;-66
2022/12/09 01:22:30;;;;;;;46.18;26.75;;;;;;;1.95;74.35;99545.42;2024084;88;28206;-66
2022/12/09 01:25:31;;;;;;;44.60;26.15;;;;;;;1.93;74.39;99545.91;2024014;88;28231;-66
2022/12/09 01:28:35;;;;;;;44.25;25.50;;;;;;;1.95;74.58;99543.22;2024417;88;31127;-65
2022/12/09 01:31:36;;;;;;;47.58;25.82;;;;;;;1.94;74.51;99545.44;2023646;88;33935;-65
2022/12/09 01:34:38;;;;;;;43.35;26.05;;;;;;;1.93;74.52;99546.34;2023954;88;30150;-66
2022/12/09 01:37:39;;;;;;;45.25;27.82;;;;;;;1.91;74.58;99545.08;2024028;88;27685;-66
2022/12/09 01:40:46;;;;;;;48.58;24.12;;;;;;;1.92;74.64;99541.97;2027827;86;28679;-66
2022/12/09 01:44:13;;;;;;;39.35;25.92;;;;;;;1.92;74.72;99542.85;2039310;87;31942;-65
2022/12/09 01:47:20;;;;;;;46.02;25.48;;;;;;;1.90;74.71;99544.66;2039074;87;33955;-66
2022/12/09 01:50:22;;;;;;;45.05;26.37;;;;;;;1.89;74.75;99545.57;2039283;87;29475;-65
2022/12/09 01:53:27;;;;;;;47.20;26.45;;;;;;;1.90;74.85;99551.73;2037387;87;27774;-66
2022/12/09 01:56:31;;;;;;;;;;;;;;;1.90;74.82;99547.77;2019956;88;28700;-66
2022/12/09 01:59:33;;;;;;;40.85;23.67;;;;;;;1.89;74.92;99546.04;2053891;86;31071;-66
2022/12/09 02:02:36;;;;;;;42.17;25.37;;;;;;;1.87;74.96;99542.09;2065331;86;33021;-66
2022/12/09 02:05:38;;;;;;;43.20;24.95;;;;;;;1.86;74.96;99535.08;2065120;85;29514;-65
2022/12/09 02:08:40;;;;;;;49.13;26.23;;;;;;;1.86;74.99;99543.47;2065493;86;27755;-65
2022/12/09 02:12:08;;;;;;;43.52;25.70;;;;;;;1.82;74.94;99534.77;2065320;86;29461;-66
2022/12/09 02:15:17;;;;;;;43.00;25.82;;;;;;;1.82;74.97;99541.38;2076329;85;31160;-66
2022/12/09 02:18:36;;;;;;;42.70;24.95;;;;;;;1.82;75.18;99541.38;2076473;85;32998;-65
2022/12/09 02:21:52;;;;;;;42.45;24.25;;;;;;;1.82;75.15;99536.94;2076295;85;29363;-65
2022/12/09 02:25:17;;;;;;;42.27;24.80;;;;;;;1.82;75.20;99544.02;2076727;85;27743;-65
2022/12/09 02:28:43;;;;;;;40.20;24.30;;;;;;;1.82;75.24;99540.05;2073013;85;29119;-64
2022/12/09 02:32:11;;;;;;;40.60;24.98;;;;;;;1.81;75.27;99539.64;2076396;85;31346;-64
2022/12/09 02:35:41;;;;;;;35.73;23.25;;;;;;;1.80;75.27;99534.80;2076532;85;33120;-65
2022/12/09 02:38:43;;;;;;;44.15;24.52;;;;;;;1.78;75.26;99537.92;2075477;85;29346;-65
2022/12/09 02:41:46;;;;;;;41.35;24.60;;;;;;;1.75;75.33;99535.36;2073320;85;27695;-65
2022/12/09 02:44:49;;;;;;;45.35;25.57;;;;;;;1.74;75.36;99532.77;2072942;85;29465;-65
2022/12/09 02:47:52;;;;;;;41.15;24.65;;;;;;;1.73;75.35;99531.03;2070884;85;31773;-64
2022/12/09 02:50:53;;;;;;;40.50;24.35;;;;;;;1.70;75.32;99535.06;2073080;85;32981;-66
2022/12/09 02:54:02;;;;;;;39.78;24.00;;;;;;;1.68;75.44;99527.20;2074316;85;29339;-64
2022/12/09 02:57:08;;;;;;;37.10;23.35;;;;;;;1.66;75.44;99528.53;2073356;85;27664;-66
2022/12/09 03:00:14;;;;;;;41.92;25.45;;;;;;;1.63;75.44;99531.28;2073289;85;28658;-65
2022/12/09 03:03:17;;;;;;;42.53;25.30;;;;;;;1.60;75.34;99531.35;2073217;85;31238;-65
2022/12/09 03:06:19;;;;;;;42.00;24.80;;;;;;;1.56;75.29;99528.37;2073486;85;33675;-65
2022/12/09 03:09:25;;;;;;;40.15;24.70;;;;;;;1.50;75.34;99521.91;2073792;85;29284;-65
2022/12/09 03:12:29;;;;;;;38.30;22.05;;;;;;;1.45;75.47;99525.99;2072741;85;27690;-65
2022/12/09 03:15:34;;;;;;;39.05;23.57;;;;;;;1.40;75.37;99525.70;2066767;85;29506;-65
2022/12/09 03:18:38;;;;;;;44.25;24.57;;;;;;;1.34;75.37;99522.30;2073361;85;31178;-65
2022/12/09 03:21:45;;;;;;;40.85;23.05;;;;;;;1.28;75.44;99526.86;2073300;85;33030;-64
2022/12/09 03:25:00;;;;;;;41.20;24.45;;;;;;;1.23;75.54;99526.12;2073323;85;29337;-65
2022/12/09 03:28:06;;;;;;;42.50;24.55;;;;;;;1.19;75.59;99526.63;2073592;85;27696;-67
2022/12/09 03:31:13;;;;;;;40.70;23.75;;;;;;;1.16;75.77;99524.94;2071906;85;28732;-65
2022/12/09 03:34:19;;;;;;;42.53;24.87;;;;;;;1.15;75.86;99525.84;2072090;85;31071;-66
2022/12/09 03:37:21;;;;;;;43.28;25.15;;;;;;;1.15;75.99;99524.98;2073345;85;32956;-65
2022/12/09 03:40:26;;;;;;;45.80;25.23;;;;;;;1.14;76.17;99512.70;2053801;85;30102;-65
2022/12/09 03:43:29;;;;;;;;;;;;;;;1.14;76.22;99512.23;2040179;87;27832;-65
2022/12/09 03:46:31;;;;;;;42.83;23.67;;;;;;;1.14;76.27;99513.55;2037834;87;28673;-64
2022/12/09 03:49:33;;;;;;;42.80;25.68;;;;;;;1.13;76.31;99512.28;2037740;87;31562;-65
2022/12/09 03:52:52;;;;;;;45.00;24.45;;;;;;;1.11;76.31;99512.30;2021465;87;32812;-65
2022/12/09 03:56:17;;;;;;;42.75;25.72;;;;;;;1.10;76.28;99511.88;1999065;89;29325;-66
2022/12/09 03:59:19;;;;;;;38.23;24.03;;;;;;;1.08;76.25;99519.42;1998937;88;27720;-65
2022/12/09 04:02:21;;;;;;;40.98;24.55;;;;;;;1.04;76.28;99513.36;1998578;89;29673;-65
2022/12/09 04:05:22;;;;;;;41.98;24.55;;;;;;;1.01;76.29;99505.05;1998562;89;31033;-65
2022/12/09 04:08:24;;;;;;;37.88;23.92;;;;;;;0.98;76.34;99501.62;1998633;89;33000;-66
2022/12/09 04:11:26;;;;;;;42.90;24.50;;;;;;;0.94;76.39;99503.91;1998553;89;30128;-65
2022/12/09 04:14:28;;;;;;;42.98;25.57;;;;;;;0.91;76.39;99502.22;2003180;87;27750;-65
2022/12/09 04:17:30;;;;;;;42.25;24.40;;;;;;;0.87;76.37;99500.55;2037559;87;28685;-66
2022/12/09 04:20:31;;;;;;;46.70;25.55;;;;;;;0.83;76.39;99504.18;2037596;87;31076;-64
2022/12/09 04:23:33;;;;;;;40.38;24.90;;;;;;;0.79;76.36;99508.63;2037662;87;33671;-64
2022/12/09 04:26:35;;;;;;;44.35;25.43;;;;;;;0.74;76.40;99502.62;2037576;87;29328;-65
2022/12/09 04:29:36;;;;;;;45.08;26.75;;;;;;;0.70;76.44;99500.48;2038065;87;27764;-65
2022/12/09 04:32:38;;;;;;;41.28;25.72;;;;;;;0.66;76.42;99498.83;2037478;87;29207;-66
2022/12/09 04:35:40;;;;;;;45.75;25.97;;;;;;;0.63;76.37;99504.59;2037509;87;31070;-64
2022/12/09 04:38:43;;;;;;;45.03;26.60;;;;;;;0.57;76.38;99508.23;2037488;87;33331;-66
2022/12/09 04:41:44;;;;;;;53.35;27.40;;;;;;;0.51;76.39;99513.20;2062863;85;30112;-65
2022/12/09 04:44:46;;;;;;;44.83;25.97;;;;;;;0.45;76.42;99514.20;2059841;86;27721;-65
2022/12/09 04:47:47;;;;;;;48.87;27.15;;;;;;;0.40;76.44;99517.37;2066535;86;28663;-65
2022/12/09 04:50:49;;;;;;;48.80;26.12;;;;;;;0.35;76.49;99522.32;2066247;86;30966;-64
2022/12/09 04:53:50;;;;;;;46.53;25.65;;;;;;;0.30;76.57;99518.00;2066525;86;33733;-65
2022/12/09 04:56:52;;;;;;;50.40;27.75;;;;;;;0.26;76.52;99520.73;2066595;86;29589;-65
2022/12/09 04:59:54;;;;;;;52.53;27.07;;;;;;;0.20;76.52;99520.84;2066802;86;28246;-64
2022/12/09 05:02:55;;;;;;;55.23;29.32;;;;;;;0.14;76.47;99522.73;2066507;86;28649;-66
2022/12/09 05:05:57;;;;;;;52.33;29.50;;;;;;;0.07;76.43;99530.78;2066218;86;31080;-66
2022/12/09 05:08:59;;;;;;;54.27;30.17;;;;;;;0.02;76.48;99528.67;2066515;86;32977;-66
2022/12/09 05:12:01;;;;;;;54.65;29.70;;;;;;;-0.06;76.42;99522.23;2066586;85;29358;-66
2022/12/09 05:15:03;;;;;;;53.87;29.67;;;;;;;-0.14;76.43;99528.95;2038074;86;27693;-65
2022/12/09 05:18:04;;;;;;;62.13;30.27;;;;;;;-0.22;76.43;99537.42;2023996;87;28641;-65
2022/12/09 05:21:13;;;;;;;63.87;30.80;;;;;;;-0.27;76.58;99536.66;2024068;88;31061;-66
2022/12/09 05:24:15;;;;;;;56.70;30.62;;;;;;;-0.35;76.60;99536.80;2024052;87;33364;-64
2022/12/09 05:27:16;;;;;;;55.48;30.43;;;;;;;-0.40;76.64;99534.22;2024068;88;30302;-66
2022/12/09 05:30:18;;;;;;;56.25;29.70;;;;;;;-0.46;76.67;99535.20;2024090;87;27719;-65
2022/12/09 05:33:19;;;;;;;57.08;29.85;;;;;;;-0.50;76.72;99537.48;2023999;87;28629;-65
2022/12/09 05:36:23;;;;;;;55.85;30.85;;;;;;;-0.54;76.87;99538.42;2024113;87;31091;-67
2022/12/09 05:39:25;;;;;;;54.93;29.55;;;;;;;-0.52;77.20;99547.59;2024169;87;33595;-66
2022/12/09 05:42:26;;;;;;;53.08;29.30;;;;;;;-0.50;77.37;99546.69;2023700;87;30186;-65
2022/12/09 05:45:28;;;;;;;52.50;29.57;;;;;;;-0.48;77.52;99544.88;2024284;86;27743;-67
2022/12/09 05:48:30;;;;;;;55.65;29.90;;;;;;;-0.45;77.59;99545.30;2023759;88;29522;-65
2022/12/09 05:51:32;;;;;;;51.50;27.77;;;;;;;-0.40;77.84;99547.84;2024012;87;31046;-67
2022/12/09 05:54:33;;;;;;;55.52;30.60;;;;;;;-0.36;77.85;99548.22;2024201;88;33596;-66
2022/12/09 05:57:36;;;;;;;57.43;29.90;;;;;;;-0.32;78.03;99545.50;2024097;88;30259;-66
2022/12/09 06:00:37;;;;;;;52.40;29.00;;;;;;;-0.26;78.08;99547.14;2024144;87;28267;-64
2022/12/09 06:03:39;;;;;;;58.50;32.00;;;;;;;-0.22;78.10;99546.64;2024049;87;28621;-67
2022/12/09 06:06:41;;;;;;;56.77;31.50;;;;;;;-0.17;78.14;99547.44;2024223;87;31030;-67
2022/12/09 06:09:43;;;;;;;64.77;34.63;;;;;;;-0.14;78.18;99546.07;2024068;87;33104;-67
2022/12/09 06:12:45;;;;;;;59.38;33.65;;;;;;;-0.08;78.28;99542.45;2025659;86;30148;-65
2022/12/09 06:15:46;;;;;;;79.53;41.45;;;;;;;-0.04;78.43;99543.67;2064029;86;27694;-66
2022/12/09 06:18:48;;;;;;;78.97;41.88;;;;;;;0.02;78.53;99543.16;2064029;86;28648;-67
2022/12/09 06:21:50;;;;;;;79.53;39.88;;;;;;;0.07;78.58;99543.95;2063763;86;31881;-66
2022/12/09 06:24:51;;;;;;;79.22;42.17;;;;;;;0.11;78.58;99542.53;2063750;86;32969;-67
2022/12/09 06:27:53;;;;;;;80.07;42.65;;;;;;;0.13;78.61;99541.17;2063962;86;29321;-67
2022/12/09 06:30:57;;;;;;;78.33;42.20;;;;;;;0.13;78.65;99536.79;2063922;86;27752;-67
2022/12/09 06:33:58;;;;;;;77.80;41.92;;;;;;;0.17;78.71;99534.95;2063882;86;28653;-67
2022/12/09 06:37:00;;;;;;;78.15;42.23;;;;;;;0.21;78.78;99540.59;2064685;86;31977;-67
2022/12/09 06:40:02;;;;;;;75.92;40.45;;;;;;;0.25;78.79;99536.97;2063722;86;33578;-67
2022/12/09 06:43:04;;;;;;;71.95;39.40;;;;;;;0.29;78.73;99537.80;2059531;86;29352;-67
2022/12/09 06:46:23;;;;;;;67.27;38.35;;;;;;;0.31;78.74;99539.97;2061960;86;27579;-67
2022/12/09 06:49:25;;;;;;;71.28;38.73;;;;;;;0.33;78.70;99542.55;2061704;86;29527;-66
2022/12/09 06:52:27;;;;;;;71.28;38.65;;;;;;;0.34;78.80;99539.02;2061635;86;31019;-66
2022/12/09 06:55:29;;;;;;;72.42;39.27;;;;;;;0.37;78.83;99541.14;2061669;86;33021;-66
2022/12/09 06:58:32;;;;;;;78.22;43.33;;;;;;;0.40;78.92;99541.08;2061710;86;30142;-67
2022/12/09 07:01:34;;;;;;;74.10;42.23;;;;;;;0.46;78.98;99537.45;2061787;86;27676;-64
2022/12/09 07:04:36;;;;;;;76.22;43.70;;;;;;;0.50;79.02;99533.01;2061660;86;29358;-66
2022/12/09 07:07:37;;;;;;;80.40;45.00;;;;;;;0.56;79.10;99532.86;2061554;86;31450;-65
2022/12/09 07:10:40;;;;;;;74.65;43.30;;;;;;;0.62;79.13;99533.17;2061533;85;34301;-66
2022/12/09 07:13:41;;;;;;;80.75;43.13;;;;;;;0.64;78.92;99529.63;2055721;86;30245;-66
2022/12/09 07:16:43;;;;;;;80.40;44.42;;;;;;;0.68;79.01;99530.42;2062025;85;27949;-65
2022/12/09 07:19:45;;;;;;;81.55;43.13;;;;;;;0.71;78.92;99529.04;2061580;86;29903;-65
2022/12/09 07:22:47;;;;;;;87.25;44.60;;;;;;;0.72;78.90;99527.67;2061697;86;31405;-66
2022/12/09 07:25:57;;;;;;;86.47;44.00;;;;;;;0.73;78.82;99527.24;2061530;86;33545;-67
2022/12/09 07:29:02;;;;;;;98.65;50.20;;;;;;;0.75;78.85;99535.95;2061402;86;29334;-66
2022/12/09 07:32:04;;;;;;;89.13;49.50;;;;;;;0.78;78.89;99535.89;2061964;86;28002;-64
2022/12/09 07:35:06;;;;;;;96.70;53.45;;;;;;;0.84;79.06;99531.81;2061691;85;28655;-67
2022/12/09 07:38:08;;;;;;;112.47;62.00;;;;;;;0.90;79.10;99543.56;2061579;85;31046;-66
2022/12/09 07:41:16;;;;;;;79.25;41.30;;;;;;;0.95;79.10;99537.29;2062116;86;32145;-66
2022/12/09 07:44:14;;;;;;;67.70;36.33;;;;;;;1.00;79.07;99540.23;2061475;86;29782;-65
2022/12/09 07:47:15;;;;;;;74.10;39.25;;;;;;;1.08;79.13;99541.38;2064042;86;27711;-65
2022/12/09 07:50:17;;;;;;;56.83;33.10;;;;;;;1.13;78.90;99549.20;2063817;86;28802;-65
2022/12/09 07:53:19;;;;;;;57.85;33.90;;;;;;;1.21;79.08;99548.56;2063956;85;31940;-65
2022/12/09 07:56:21;;;;;;;61.92;33.23;;;;;;;1.28;78.78;99541.36;2064019;86;32961;-65
2022/12/09 07:59:23;;;;;;;63.10;36.42;;;;;;;1.30;78.71;99542.20;2064147;86;29500;-66
2022/12/09 08:02:24;;;;;;;78.02;44.05;;;;;;;1.36;78.78;99546.02;2064250;86;28218;-66
2022/12/09 08:05:26;;;;;;;86.92;46.35;;;;;;;1.41;78.65;99549.86;2064182;86;28698;-66
2022/12/09 08:08:28;;;;;;;88.95;44.83;;;;;;;1.44;78.60;99551.11;2063980;86;31840;-66
2022/12/09 08:11:31;;;;;;;115.03;52.58;;;;;;;1.44;78.40;99545.84;2063989;86;33916;-66
2022/12/09 08:14:33;;;;;;;85.57;46.88;;;;;;;1.43;78.34;99546.27;2063891;86;29454;-66
2022/12/09 08:17:34;;;;;;;91.53;49.67;;;;;;;1.45;78.35;99547.58;2064373;86;27704;-66
2022/12/09 08:20:36;;;;;;;91.00;51.25;;;;;;;1.45;78.36;99554.17;2064065;86;28661;-66
2022/12/09 08:23:38;;;;;;;99.58;53.50;;;;;;;1.46;78.33;99551.48;2063866;86;31203;-64
2022/12/09 08:26:40;;;;;;;98.58;51.20;;;;;;;1.52;78.44;99550.46;2063879;86;32982;-66
2022/12/09 08:29:42;;;;;;;96.00;45.65;;;;;;;1.58;78.55;99556.03;2064159;86;29332;-65
2022/12/09 08:32:44;;;;;;;75.90;41.58;;;;;;;1.64;78.56;99550.18;2064058;86;27635;-65
2022/12/09 08:35:45;;;;;;;79.55;42.53;;;;;;;1.72;78.54;99552.63;2064042;86;28841;-67
2022/12/09 08:38:47;;;;;;;87.75;42.55;;;;;;;1.74;78.30;99549.46;2063969;86;31637;-66
2022/12/09 08:41:49;;;;;;;79.92;41.15;;;;;;;1.79;78.40;99548.90;2064003;86;32922;-66
2022/12/09 08:44:50;;;;;;;96.30;43.73;;;;;;;1.86;78.45;99553.56;2004514;87;30489;-66
2022/12/09 08:47:52;;;;;;;82.30;39.67;;;;;;;1.93;78.43;99551.20;1996699;88;27689;-65
2022/12/09 08:50:54;;;;;;;69.10;35.95;;;;;;;2.00;78.26;99552.33;1996781;88;29861;-66
2022/12/09 08:53:57;;;;;;;62.65;35.68;;;;;;;2.03;77.95;99551.82;1974401;90;32257;-66
2022/12/09 08:56:59;;;;;;;64.60;35.80;;;;;;;2.06;77.90;99553.06;1974553;89;33034;-66
2022/12/09 09:00:00;;;;;;;66.65;34.98;;;;;;;2.12;77.91;99547.59;1974657;90;29134;-66
2022/12/09 09:03:02;;;;;;;59.10;32.78;;;;;;;2.19;77.75;99548.76;1974586;89;27744;-66
2022/12/09 09:06:06;;;;;;;70.60;36.75;;;;;;;2.25;77.44;99548.13;1974543;90;29595;-67
2022/12/09 09:09:10;;;;;;;66.07;37.33;;;;;;;2.30;77.39;99548.47;1974532;90;31950;-66
2022/12/09 09:12:11;;;;;;;70.05;37.38;;;;;;;2.35;77.35;99543.90;1974653;88;32988;-66
2022/12/09 09:15:13;;;;;;;75.40;39.20;;;;;;;2.41;77.50;99541.95;1974278;90;30576;-65
2022/12/09 09:18:15;;;;;;;61.70;35.20;;;;;;;2.48;77.49;99538.70;1974983;90;27715;-66
2022/12/09 09:21:21;;;;;;;58.92;34.03;;;;;;;2.53;77.10;99539.88;1974719;90;29139;-66
2022/12/09 09:24:24;;;;;;;57.23;33.15;;;;;;;2.58;77.05;99536.19;1974575;90;31027;-65
2022/12/09 09:27:26;;;;;;;55.92;32.40;;;;;;;2.63;77.07;99532.08;1974371;90;34199;-66
2022/12/09 09:30:27;;;;;;;50.75;30.00;;;;;;;2.68;76.79;99534.58;1974677;90;30123;-65
2022/12/09 09:33:29;;;;;;;47.73;28.05;;;;;;;2.72;76.81;99530.94;1974611;90;27752;-65
2022/12/09 09:36:31;;;;;;;51.10;29.77;;;;;;;2.77;76.60;99534.33;1974367;89;30079;-66
2022/12/09 09:39:33;;;;;;;51.10;30.23;;;;;;;2.80;76.45;99527.63;1974211;90;32270;-66
2022/12/09 09:42:36;;;;;;;44.70;27.20;;;;;;;2.85;76.40;99527.01;1978765;88;33762;-66
2022/12/09 09:45:39;;;;;;;47.00;28.38;;;;;;;2.90;76.19;99532.16;1974785;88;29431;-63
2022/12/09 09:48:40;;;;;;;50.23;32.08;;;;;;;2.94;75.91;99525.01;1974601;89;28213;-64
2022/12/09 09:51:42;;;;;;;56.45;34.27;;;;;;;2.96;75.92;99522.72;1980524;88;29504;-66
2022/12/09 09:54:44;;;;;;;55.98;32.08;;;;;;;2.98;75.85;99522.22;2035107;87;31830;-66
2022/12/09 09:58:11;;;;;;;51.73;30.68;;;;;;;2.99;75.71;99517.77;2011671;88;32947;-66
2022/12/09 10:01:19;;;;;;;53.35;30.82;;;;;;;3.03;75.28;99514.13;2034871;87;29420;-65
2022/12/09 10:04:39;;;;;;;52.30;30.35;;;;;;;3.06;75.52;99515.83;2011785;88;27690;-65
2022/12/09 10:07:53;;;;;;;55.80;31.60;;;;;;;3.05;75.50;99503.04;2034996;87;28792;-65
2022/12/09 10:11:21;;;;;;;46.55;27.67;;;;;;;3.04;75.21;99511.89;2011704;88;31028;-65
2022/12/09 10:14:58;;;;;;;51.60;29.42;;;;;;;3.04;74.93;99508.80;2034887;87;33385;-65
2022/12/09 10:18:24;;;;;;;50.05;28.75;;;;;;;3.05;75.07;99501.72;2034992;87;30523;-66
2022/12/09 10:21:27;;;;;;;;;;;;;;;3.06;74.87;99501.28;2037579;87;27725;-65
2022/12/09 10:24:34;;;;;;;48.70;31.10;;;;;;;3.08;75.12;99498.98;2035086;87;29384;-65
2022/12/09 10:27:40;;;;;;;53.40;31.87;;;;;;;3.10;75.23;99497.16;2011815;88;31067;-65
2022/12/09 10:30:42;;;;;;;52.70;31.42;;;;;;;3.11;75.14;99500.66;2035117;87;32958;-66
2022/12/09 10:33:44;;;;;;;50.10;30.45;;;;;;;3.12;75.27;99501.95;2011598;88;29349;-65
2022/12/09 10:36:47;;;;;;;57.88;31.73;;;;;;;3.13;75.32;99500.15;2035283;87;27621;-65
2022/12/09 10:39:53;;;;;;;52.50;29.63;;;;;;;3.14;75.24;99494.83;2011845;88;28664;-65
2022/12/09 10:46:22;;;;;;;41.70;27.60;;;;;;;3.17;75.01;99495.17;2011640;88;34012;-65
2022/12/09 10:49:24;;;;;;;45.08;26.48;;;;;;;3.21;75.17;99487.99;2035343;87;29348;-65
2022/12/09 10:52:30;;;;;;;44.80;24.57;;;;;;;3.24;75.10;99475.52;2010035;88;27795;-65
2022/12/09 10:55:45;;;;;;;44.10;26.70;;;;;;;3.26;74.93;99476.81;2004069;87;28665;-65
2022/12/09 10:58:47;;;;;;;46.02;26.33;;;;;;;3.29;74.73;99474.91;2011476;88;31875;-65
2022/12/09 11:02:04;;;;;;;47.45;28.27;;;;;;;3.31;75.01;99466.47;2064063;86;32998;-65
2022/12/09 11:05:27;;;;;;;52.80;28.05;;;;;;;3.38;74.90;99460.98;2063613;86;31520;-66
2022/12/09 11:08:30;;;;;;;53.85;31.02;;;;;;;3.44;74.59;99458.11;2063879;86;27625;-65
2022/12/09 11:11:48;;;;;;;57.60;30.37;;;;;;;3.42;74.10;99456.84;2063846;86;29553;-65
2022/12/09 11:14:57;;;;;;;52.67;31.27;;;;;;;3.46;74.42;99446.56;2063925;86;31043;-64
2022/12/09 11:18:09;;;;;;;47.48;28.23;;;;;;;3.50;74.52;99445.52;2063917;86;33778;-63
2022/12/09 11:21:30;;;;;;;89.42;53.92;;;;;;;3.55;74.21;99438.77;2061813;86;29342;-65
2022/12/09 11:24:32;;;;;;;51.02;31.37;;;;;;;3.58;74.36;99432.01;2032710;86;27703;-64
2022/12/09 11:27:34;;;;;;;46.95;27.50;;;;;;;3.62;74.10;99424.37;2024396;88;29860;-65
2022/12/09 11:30:40;;;;;;;44.95;25.32;;;;;;;3.67;74.44;99428.65;2024048;87;32239;-63
2022/12/09 11:33:54;;;;;;;45.25;27.50;;;;;;;3.72;74.14;99429.36;2024339;88;32443;-65
2022/12/09 11:36:57;;;;;;;45.05;27.30;;;;;;;3.74;74.25;99423.52;2024336;87;29377;-64
2022/12/09 11:39:59;;;;;;;48.45;29.30;;;;;;;3.72;74.08;99416.97;2024307;87;28258;-64
2022/12/09 11:43:01;;;;;;;49.33;29.75;;;;;;;3.70;74.11;99415.30;2024113;87;29532;-64
2022/12/09 11:46:14;;;;;;;51.05;31.25;;;;;;;3.69;74.21;99417.06;2023919;87;31155;-64
2022/12/09 11:49:17;;;;;;;49.73;28.77;;;;;;;3.69;74.13;99418.39;2024051;87;34187;-65
2022/12/09 11:52:28;;;;;;;67.15;38.42;;;;;;;3.68;74.03;99425.94;2032824;86;30475;-64
2022/12/09 11:55:31;;;;;;;54.90;32.33;;;;;;;3.68;74.20;99417.14;2063122;86;27688;-64
2022/12/09 11:58:52;;;;;;;57.27;32.38;;;;;;;3.68;74.14;99407.39;2024019;87;29477;-64
2022/12/09 12:02:16;;;;;;;58.17;32.85;;;;;;;3.69;74.17;99402.50;2024382;88;31085;-65
2022/12/09 12:05:43;;;;;;;61.63;32.85;;;;;;;3.75;74.28;99397.00;2024133;87;33396;-65
2022/12/09 12:08:50;;;;;;;66.07;36.83;;;;;;;3.85;74.46;99396.20;2024186;87;30504;-64
2022/12/09 12:12:03;;;;;;;47.93;28.80;;;;;;;3.90;74.17;99400.84;2024115;87;27717;-64
2022/12/09 12:15:22;;;;;;;41.23;24.80;;;;;;;3.97;74.39;99391.36;2024255;87;28685;-64
2022/12/09 12:18:25;;;;;;;38.00;21.85;;;;;;;4.03;74.19;99393.80;2024258;88;31940;-63
2022/12/09 12:22:09;;;;;;;36.10;23.30;;;;;;;4.08;74.06;99391.81;2024215;86;33779;-65
2022/12/09 12:25:43;;;;;;;43.05;24.82;;;;;;;4.05;73.44;99388.83;1987456;88;29394;-65
2022/12/09 12:28:59;;;;;;;39.48;24.82;;;;;;;4.03;73.54;99389.34;1987163;89;27901;-65
2022/12/09 12:32:25;;;;;;;56.92;33.38;;;;;;;4.02;73.38;99400.02;1987539;89;28669;-65
2022/12/09 12:35:38;;;;;;;59.75;31.68;;;;;;;4.02;73.59;99395.56;1987376;89;31066;-64
2022/12/09 12:39:06;;;;;;;61.35;33.25;;;;;;;4.09;73.78;99390.89;1995564;87;33811;-65
2022/12/09 12:42:34;;;;;;;45.38;28.50;;;;;;;4.18;73.58;99393.21;2018459;87;29662;-64
2022/12/09 12:46:16;;;;;;;56.70;32.55;;;;;;;4.28;73.08;99392.41;2023361;88;27791;-64
2022/12/09 12:49:58;;;;;;;48.45;29.07;;;;;;;4.32;73.25;99387.36;2023842;87;28682;-64
2022/12/09 12:53:08;;;;;;;58.42;33.23;;;;;;;4.37;72.97;99385.88;2023924;87;31363;-66
2022/12/09 12:56:30;;;;;;;61.68;34.13;;;;;;;4.38;72.91;99384.96;2023779;87;33353;-65
2022/12/09 12:59:43;;;;;;;60.80;34.45;;;;;;;4.33;72.84;99381.13;2023961;87;29927;-66
2022/12/09 13:03:02;;;;;;;53.38;33.05;;;;;;;4.30;72.81;99379.95;2028422;87;28241;-65
2022/12/09 13:06:04;;;;;;;60.65;34.98;;;;;;;4.24;72.38;99378.85;2028554;87;28764;-64
2022/12/09 13:09:23;;;;;;;60.80;35.63;;;;;;;4.21;72.74;99377.20;2028624;87;31092;-66
2022/12/09 13:15:54;;;;;;;58.73;35.25;;;;;;;4.22;72.89;99386.84;2000732;88;29382;-65
2022/12/09 13:19:06;;;;;;;53.25;31.62;;;;;;;4.20;72.85;99389.16;1978365;90;27750;-64
2022/12/09 13:22:12;;;;;;;53.63;31.62;;;;;;;4.21;72.80;99384.27;2016905;87;28914;-65
2022/12/09 13:25:26;;;;;;;54.90;33.18;;;;;;;4.19;72.79;99380.81;2038701;87;31851;-66
2022/12/09 13:28:56;;;;;;;59.58;33.40;;;;;;;4.19;72.88;99379.48;2039158;87;32998;-65
2022/12/09 13:32:34;;;;;;;51.95;31.48;;;;;;;4.22;73.07;99373.59;2039199;86;30012;-65
2022/12/09 13:35:54;;;;;;;54.18;32.48;;;;;;;4.22;72.71;99379.37;2039384;87;36378;-64
2022/12/09 13:38:56;;;;;;;58.58;33.42;;;;;;;4.21;72.87;99388.24;2038593;87;28862;-65
2022/12/09 13:45:43;;;;;;;58.85;33.95;;;;;;;4.14;72.55;99386.29;2028348;87;33203;-64
2022/12/09 13:48:47;;;;;;;57.98;34.48;;;;;;;4.07;72.71;99386.98;2027639;87;30224;-63
2022/12/09 13:51:51;;;;;;;54.33;33.40;;;;;;;4.05;72.90;99390.16;2030722;87;27689;-65
2022/12/09 13:54:53;;;;;;;56.48;34.53;;;;;;;4.03;72.87;99389.81;2045877;87;28654;-65
2022/12/09 13:58:14;;;;;;;49.10;29.92;;;;;;;4.02;73.01;99388.94;2045829;85;31425;-65
2022/12/09 14:01:44;;;;;;;45.20;27.62;;;;;;;4.00;72.98;99395.23;2045717;87;33413;-75
2022/12/09 14:04:50;;;;;;;46.92;29.23;;;;;;;3.95;73.20;99390.11;2052021;86;30275;-68
2022/12/09 14:08:18;;;;;;;55.08;32.25;;;;;;;3.95;72.99;99390.11;2025971;87;27795;-63
2022/12/09 14:11:43;;;;;;;59.20;33.88;;;;;;;3.91;73.06;99373.91;2025937;87;29437;-63
2022/12/09 14:15:04;;;;;;;56.63;32.73;;;;;;;3.88;73.02;99375.34;2026001;87;30519;-64
2022/12/09 14:18:08;;;;;;;57.03;33.73;;;;;;;3.84;72.95;99382.99;2026284;87;33612;-62
2022/12/09 14:21:27;;;;;;;57.15;32.30;;;;;;;3.79;72.92;99378.75;2013466;87;28992;-64
2022/12/09 14:24:31;;;;;;;52.67;31.02;;;;;;;3.72;72.83;99378.56;1988216;89;27712;-66
2022/12/09 14:27:32;;;;;;;54.48;32.98;;;;;;;3.64;72.67;99367.39;1941578;90;29115;-65
2022/12/09 14:30:51;;;;;;;50.05;30.52;;;;;;;3.55;72.54;99355.34;1961038;89;32228;-64
2022/12/09 14:33:55;;;;;;;60.28;32.78;;;;;;;3.49;72.71;99339.20;1987025;89;28185;-65
2022/12/09 14:37:23;;;;;;;57.75;34.00;;;;;;;3.45;72.84;99334.07;1994635;88;29734;-65